createdAt,value
2018-11-21T00:00:15.882Z,3.69
2018-11-21T00:00:42.012Z,3.7
2018-11-21T00:01:08.140Z,3.59
2018-11-21T00:01:34.275Z,3.68
2018-11-21T00:02:00.396Z,3.68
2018-11-21T00:02:26.529Z,3.77
2018-11-21T00:02:52.680Z,3.66
2018-11-21T00:03:18.840Z,3.65
2018-11-21T00:03:44.998Z,3.6
2018-11-21T00:04:11.126Z,3.77
2018-11-21T00:04:37.258Z,3.77
2018-11-21T00:05:03.430Z,3.68
2018-11-21T00:05:29.557Z,3.68
2018-11-21T00:05:55.737Z,3.66
2018-11-21T00:06:21.861Z,3.66
2018-11-21T00:06:47.993Z,3.62
2018-11-21T00:07:14.125Z,3.66
2018-11-21T00:07:40.253Z,3.53
2018-11-21T00:08:06.407Z,3.66
2018-11-21T00:08:32.544Z,3.63
2018-11-21T00:08:58.670Z,3.66
2018-11-21T00:09:24.802Z,3.63
2018-11-21T00:09:50.929Z,3.6
2018-11-21T00:10:17.061Z,3.55
2018-11-21T00:10:43.192Z,3.58
2018-11-21T00:11:09.324Z,3.69
2018-11-21T00:11:35.459Z,3.66
2018-11-21T00:12:01.585Z,3.68
2018-11-21T00:12:27.712Z,3.65
2018-11-21T00:12:53.847Z,3.69
2018-11-21T00:13:20.000Z,3.63
2018-11-21T00:13:46.126Z,3.63
2018-11-21T00:14:12.260Z,3.63
2018-11-21T00:14:38.393Z,3.68
2018-11-21T00:15:04.521Z,3.63
2018-11-21T00:15:30.654Z,3.65
2018-11-21T00:15:56.779Z,3.69
2018-11-21T00:16:22.914Z,3.7
2018-11-21T00:16:49.046Z,3.65
2018-11-21T00:17:15.171Z,3.63
2018-11-21T00:17:41.305Z,3.65
2018-11-21T00:18:07.452Z,3.62
2018-11-21T00:18:33.607Z,3.69
2018-11-21T00:19:00.703Z,3.69
2018-11-21T00:19:25.879Z,3.86
2018-11-21T00:19:52.026Z,3.62
2018-11-21T00:20:18.158Z,3.7
2018-11-21T00:20:44.295Z,3.62
2018-11-21T00:21:10.419Z,3.73
2018-11-21T00:21:36.575Z,3.69
2018-11-21T00:22:02.706Z,3.78
2018-11-21T00:22:28.860Z,3.76
2018-11-21T00:22:55.020Z,3.73
2018-11-21T00:23:21.169Z,3.76
2018-11-21T00:23:47.299Z,3.8
2018-11-21T00:24:13.433Z,3.83
2018-11-21T00:24:39.579Z,3.74
2018-11-21T00:25:05.715Z,3.8
2018-11-21T00:25:31.848Z,3.83
2018-11-21T00:25:57.977Z,3.78
2018-11-21T00:26:24.102Z,3.81
2018-11-21T00:26:50.232Z,3.8
2018-11-21T00:27:16.376Z,3.78
2018-11-21T00:27:42.506Z,3.69
2018-11-21T00:28:08.664Z,3.66
2018-11-21T00:28:34.785Z,3.69
2018-11-21T00:29:00.919Z,3.65
2018-11-21T00:29:27.044Z,3.62
2018-11-21T00:29:53.171Z,3.73
2018-11-21T00:30:19.307Z,3.68
2018-11-21T00:30:45.435Z,3.66
2018-11-21T00:31:11.602Z,3.81
2018-11-21T00:31:37.737Z,3.68
2018-11-21T00:32:03.857Z,3.63
2018-11-21T00:32:29.989Z,3.68
2018-11-21T00:32:56.126Z,3.62
2018-11-21T00:33:22.277Z,3.62
2018-11-21T00:33:48.408Z,3.53
2018-11-21T00:34:14.535Z,3.55
2018-11-21T00:34:40.657Z,3.51
2018-11-21T00:35:06.791Z,3.51
2018-11-21T00:35:32.931Z,3.55
2018-11-21T00:35:59.056Z,3.55
2018-11-21T00:36:25.188Z,3.58
2018-11-21T00:36:51.345Z,3.51
2018-11-21T00:37:17.477Z,3.55
2018-11-21T00:37:43.633Z,3.48
2018-11-21T00:38:09.764Z,3.48
2018-11-21T00:38:35.893Z,3.55
2018-11-21T00:39:02.018Z,3.44
2018-11-21T00:39:28.151Z,3.55
2018-11-21T00:39:54.279Z,3.47
2018-11-21T00:40:20.435Z,3.55
2018-11-21T00:40:46.588Z,3.4
2018-11-21T00:41:12.741Z,3.48
2018-11-21T00:41:38.875Z,3.45
2018-11-21T00:42:05.007Z,3.42
2018-11-21T00:42:31.151Z,3.5
2018-11-21T00:42:57.283Z,3.53
2018-11-21T00:43:23.411Z,3.51
2018-11-21T00:43:49.539Z,3.5
2018-11-21T00:44:15.670Z,3.55
2018-11-21T00:44:41.822Z,3.58
2018-11-21T00:45:07.955Z,3.51
2018-11-21T00:45:34.079Z,3.45
2018-11-21T00:46:00.216Z,3.55
2018-11-21T00:46:26.346Z,3.42
2018-11-21T00:46:52.477Z,3.42
2018-11-21T00:47:18.606Z,3.45
2018-11-21T00:47:44.744Z,3.48
2018-11-21T00:48:10.872Z,3.41
2018-11-21T00:48:37.002Z,3.42
2018-11-21T00:49:03.131Z,3.45
2018-11-21T00:49:29.291Z,3.55
2018-11-21T00:49:55.421Z,3.48
2018-11-21T00:50:21.746Z,3.5
2018-11-21T00:50:47.877Z,3.47
2018-11-21T00:51:14.005Z,3.5
2018-11-21T00:51:40.136Z,3.47
2018-11-21T00:52:06.267Z,3.51
2018-11-21T00:52:32.398Z,3.55
2018-11-21T00:52:58.559Z,3.45
2018-11-21T00:53:24.684Z,3.48
2018-11-21T00:53:50.827Z,3.41
2018-11-21T00:54:16.964Z,3.42
2018-11-21T00:54:43.148Z,3.42
2018-11-21T00:55:09.301Z,3.47
2018-11-21T00:55:35.430Z,3.41
2018-11-21T00:56:01.565Z,3.34
2018-11-21T00:56:27.697Z,3.26
2018-11-21T00:56:53.936Z,3.25
2018-11-21T00:57:21.036Z,3.34
2018-11-21T00:57:47.172Z,3.31
2018-11-21T00:58:13.371Z,3.34
2018-11-21T00:58:39.586Z,3.32
2018-11-21T00:59:05.694Z,3.32
2018-11-21T00:59:31.824Z,3.29
2018-11-21T00:59:57.953Z,3.25
2018-11-21T01:00:24.112Z,3.22
2018-11-21T01:00:50.239Z,3.25
2018-11-21T01:01:16.396Z,3.29
2018-11-21T01:01:42.530Z,3.28
2018-11-21T01:02:08.660Z,3.23
2018-11-21T01:02:34.794Z,3.31
2018-11-21T01:03:00.947Z,3.26
2018-11-21T01:03:27.102Z,3.25
2018-11-21T01:03:53.232Z,3.22
2018-11-21T01:04:19.375Z,3.25
2018-11-21T01:04:45.501Z,3.29
2018-11-21T01:05:11.638Z,3.29
2018-11-21T01:05:37.766Z,3.25
2018-11-21T01:06:03.910Z,3.23
2018-11-21T01:06:30.036Z,3.25
2018-11-21T01:06:56.172Z,3.25
2018-11-21T01:07:22.319Z,3.25
2018-11-21T01:07:48.453Z,3.25
2018-11-21T01:08:14.579Z,3.28
2018-11-21T01:08:40.708Z,3.26
2018-11-21T01:09:06.838Z,3.29
2018-11-21T01:09:32.971Z,3.26
2018-11-21T01:09:59.105Z,3.31
2018-11-21T01:10:25.228Z,3.4
2018-11-21T01:10:51.362Z,3.26
2018-11-21T01:11:17.494Z,3.32
2018-11-21T01:11:43.629Z,3.34
2018-11-21T01:12:09.750Z,3.34
2018-11-21T01:12:35.883Z,3.22
2018-11-21T01:13:02.010Z,3.23
2018-11-21T01:13:28.145Z,3.26
2018-11-21T01:13:54.273Z,3.29
2018-11-21T01:14:20.418Z,3.29
2018-11-21T01:14:46.545Z,3.22
2018-11-21T01:15:12.680Z,3.37
2018-11-21T01:15:38.809Z,3.31
2018-11-21T01:16:04.938Z,3.36
2018-11-21T01:16:31.089Z,3.45
2018-11-21T01:16:57.220Z,3.42
2018-11-21T01:17:23.352Z,3.44
2018-11-21T01:17:49.487Z,3.44
2018-11-21T01:18:15.613Z,3.4
2018-11-21T01:18:41.750Z,3.47
2018-11-21T01:19:07.881Z,3.42
2018-11-21T01:19:34.009Z,3.41
2018-11-21T01:20:00.132Z,3.42
2018-11-21T01:20:26.260Z,3.42
2018-11-21T01:20:52.395Z,3.47
2018-11-21T01:21:18.550Z,3.48
2018-11-21T01:21:44.682Z,3.45
2018-11-21T01:22:10.813Z,3.45
2018-11-21T01:22:36.965Z,3.41
2018-11-21T01:23:03.099Z,3.41
2018-11-21T01:23:29.231Z,3.36
2018-11-21T01:23:55.380Z,3.44
2018-11-21T01:24:21.504Z,3.44
2018-11-21T01:24:47.636Z,3.45
2018-11-21T01:25:13.775Z,3.42
2018-11-21T01:25:39.925Z,3.48
2018-11-21T01:26:06.048Z,3.44
2018-11-21T01:26:32.179Z,3.42
2018-11-21T01:26:58.307Z,3.47
2018-11-21T01:27:24.436Z,3.4
2018-11-21T01:27:50.565Z,3.42
2018-11-21T01:28:16.717Z,3.41
2018-11-21T01:28:42.851Z,3.45
2018-11-21T01:29:08.977Z,3.41
2018-11-21T01:29:35.130Z,3.4
2018-11-21T01:30:01.263Z,3.48
2018-11-21T01:30:27.415Z,3.47
2018-11-21T01:30:53.541Z,3.5
2018-11-21T01:31:19.663Z,3.53
2018-11-21T01:31:45.797Z,3.51
2018-11-21T01:32:11.927Z,3.47
2018-11-21T01:32:38.050Z,3.5
2018-11-21T01:33:09.551Z,3.48
2018-11-21T01:33:30.349Z,3.48
2018-11-21T01:33:56.482Z,3.42
2018-11-21T01:34:22.621Z,3.55
2018-11-21T01:34:48.779Z,3.58
2018-11-21T01:35:14.959Z,3.55
2018-11-21T01:35:41.112Z,3.5
2018-11-21T01:36:07.244Z,3.56
2018-11-21T01:36:33.366Z,3.55
2018-11-21T01:36:59.496Z,3.55
2018-11-21T01:37:25.626Z,3.56
2018-11-21T01:37:51.757Z,3.63
2018-11-21T01:38:17.889Z,3.56
2018-11-21T01:38:44.023Z,3.66
2018-11-21T01:39:10.154Z,3.68
2018-11-21T01:39:36.307Z,3.68
2018-11-21T01:40:02.444Z,3.55
2018-11-21T01:40:28.572Z,3.6
2018-11-21T01:40:54.701Z,3.66
2018-11-21T01:41:20.847Z,3.68
2018-11-21T01:41:46.979Z,3.68
2018-11-21T01:42:13.115Z,3.62
2018-11-21T01:42:39.266Z,3.56
2018-11-21T01:43:05.423Z,3.65
2018-11-21T01:43:31.559Z,3.53
2018-11-21T01:43:57.690Z,3.56
2018-11-21T01:44:23.814Z,3.56
2018-11-21T01:44:49.951Z,3.51
2018-11-21T01:45:16.087Z,3.51
2018-11-21T01:45:42.228Z,3.55
2018-11-21T01:46:08.371Z,3.51
2018-11-21T01:46:34.502Z,3.58
2018-11-21T01:47:00.632Z,3.5
2018-11-21T01:47:26.762Z,3.48
2018-11-21T01:47:52.886Z,3.56
2018-11-21T01:48:19.021Z,3.5
2018-11-21T01:48:45.173Z,3.55
2018-11-21T01:49:11.310Z,3.56
2018-11-21T01:49:37.459Z,3.56
2018-11-21T01:50:03.648Z,3.55
2018-11-21T01:50:29.773Z,3.45
2018-11-21T01:50:55.905Z,3.51
2018-11-21T01:51:22.040Z,3.47
2018-11-21T01:51:48.189Z,3.47
2018-11-21T01:52:14.315Z,3.44
2018-11-21T01:52:40.458Z,3.51
2018-11-21T01:53:06.588Z,3.51
2018-11-21T01:53:32.722Z,3.56
2018-11-21T01:53:58.854Z,3.53
2018-11-21T01:54:24.980Z,3.53
2018-11-21T01:54:51.117Z,3.53
2018-11-21T01:55:17.244Z,3.51
2018-11-21T01:55:43.376Z,3.53
2018-11-21T01:56:09.498Z,3.48
2018-11-21T01:56:35.628Z,3.53
2018-11-21T01:57:01.783Z,3.47
2018-11-21T01:57:27.917Z,3.5
2018-11-21T01:57:54.047Z,3.4
2018-11-21T01:58:20.177Z,3.51
2018-11-21T01:58:46.330Z,3.53
2018-11-21T01:59:12.476Z,3.53
2018-11-21T01:59:38.614Z,3.53
2018-11-21T02:00:04.766Z,3.56
2018-11-21T02:00:30.900Z,3.5
2018-11-21T02:00:57.036Z,3.53
2018-11-21T02:01:23.188Z,3.44
2018-11-21T02:01:49.313Z,3.51
2018-11-21T02:02:15.451Z,3.48
2018-11-21T02:02:41.579Z,3.48
2018-11-21T02:03:07.711Z,3.45
2018-11-21T02:03:33.861Z,3.5
2018-11-21T02:04:00.016Z,3.42
2018-11-21T02:04:26.177Z,3.44
2018-11-21T02:04:52.303Z,3.47
2018-11-21T02:05:18.427Z,3.53
2018-11-21T02:05:44.561Z,3.47
2018-11-21T02:06:10.694Z,3.51
2018-11-21T02:06:36.820Z,3.45
2018-11-21T02:07:02.965Z,3.42
2018-11-21T02:07:29.097Z,3.45
2018-11-21T02:07:55.254Z,3.55
2018-11-21T02:08:21.381Z,3.45
2018-11-21T02:08:47.548Z,3.48
2018-11-21T02:09:13.695Z,3.5
2018-11-21T02:09:39.853Z,3.51
2018-11-21T02:10:05.977Z,3.45
2018-11-21T02:10:32.114Z,3.47
2018-11-21T02:10:58.245Z,3.55
2018-11-21T02:11:24.394Z,3.53
2018-11-21T02:11:50.527Z,3.56
2018-11-21T02:12:16.686Z,3.51
2018-11-21T02:12:42.812Z,3.51
2018-11-21T02:13:08.943Z,3.5
2018-11-21T02:13:35.072Z,3.58
2018-11-21T02:14:01.209Z,3.5
2018-11-21T02:14:27.331Z,3.6
2018-11-21T02:14:53.469Z,3.58
2018-11-21T02:15:19.616Z,3.55
2018-11-21T02:15:45.769Z,3.53
2018-11-21T02:16:11.898Z,3.55
2018-11-21T02:16:38.060Z,3.55
2018-11-21T02:17:04.233Z,3.59
2018-11-21T02:17:30.366Z,3.5
2018-11-21T02:17:56.517Z,3.56
2018-11-21T02:18:22.666Z,3.59
2018-11-21T02:18:48.797Z,3.6
2018-11-21T02:19:14.931Z,3.56
2018-11-21T02:19:41.086Z,3.65
2018-11-21T02:20:07.244Z,3.66
2018-11-21T02:20:33.396Z,3.65
2018-11-21T02:20:59.529Z,3.65
2018-11-21T02:21:25.658Z,3.65
2018-11-21T02:21:51.793Z,3.74
2018-11-21T02:22:17.920Z,3.8
2018-11-21T02:22:44.069Z,3.77
2018-11-21T02:23:10.200Z,3.6
2018-11-21T02:23:36.333Z,3.66
2018-11-21T02:24:02.461Z,3.77
2018-11-21T02:24:28.597Z,3.81
2018-11-21T02:24:54.725Z,3.77
2018-11-21T02:25:20.860Z,3.62
2018-11-21T02:25:46.990Z,3.66
2018-11-21T02:26:13.118Z,3.63
2018-11-21T02:26:39.240Z,3.76
2018-11-21T02:27:05.416Z,3.74
2018-11-21T02:27:31.549Z,3.73
2018-11-21T02:27:57.676Z,3.65
2018-11-21T02:28:23.813Z,3.62
2018-11-21T02:28:49.960Z,3.68
2018-11-21T02:29:16.093Z,3.66
2018-11-21T02:29:42.229Z,3.76
2018-11-21T02:30:08.401Z,3.76
2018-11-21T02:30:34.571Z,3.77
2018-11-21T02:31:00.735Z,3.6
2018-11-21T02:31:26.887Z,3.65
2018-11-21T02:31:53.035Z,3.68
2018-11-21T02:32:19.190Z,3.73
2018-11-21T02:32:45.321Z,3.7
2018-11-21T02:33:11.473Z,3.77
2018-11-21T02:33:37.602Z,3.8
2018-11-21T02:34:03.762Z,3.76
2018-11-21T02:34:29.892Z,3.86
2018-11-21T02:34:56.025Z,3.8
2018-11-21T02:35:22.200Z,3.74
2018-11-21T02:35:48.361Z,3.81
2018-11-21T02:36:14.567Z,3.86
2018-11-21T02:36:40.696Z,3.83
2018-11-21T02:37:06.847Z,3.76
2018-11-21T02:37:32.976Z,3.87
2018-11-21T02:37:59.143Z,3.77
2018-11-21T02:38:25.296Z,3.84
2018-11-21T02:38:51.447Z,3.83
2018-11-21T02:39:17.576Z,3.86
2018-11-21T02:39:43.705Z,3.87
2018-11-21T02:40:09.839Z,3.88
2018-11-21T02:40:35.971Z,3.91
2018-11-21T02:41:02.167Z,3.91
2018-11-21T02:41:28.335Z,3.95
2018-11-21T02:41:54.471Z,3.87
2018-11-21T02:42:20.668Z,3.91
2018-11-21T02:42:46.802Z,3.91
2018-11-21T02:43:12.957Z,3.87
2018-11-21T02:43:39.093Z,3.83
2018-11-21T02:44:05.263Z,3.88
2018-11-21T02:44:31.414Z,3.87
2018-11-21T02:44:57.543Z,3.87
2018-11-21T02:45:23.720Z,3.88
2018-11-21T02:45:49.872Z,3.91
2018-11-21T02:46:16.003Z,3.83
2018-11-21T02:46:42.174Z,3.88
2018-11-21T02:47:08.297Z,3.94
2018-11-21T02:47:34.434Z,3.91
2018-11-21T02:48:00.593Z,3.92
2018-11-21T02:48:26.722Z,3.91
2018-11-21T02:48:52.844Z,3.95
2018-11-21T02:49:18.980Z,3.95
2018-11-21T02:49:45.130Z,3.94
2018-11-21T02:50:11.302Z,3.99
2018-11-21T02:50:37.436Z,3.98
2018-11-21T02:51:03.591Z,3.88
2018-11-21T02:51:29.761Z,3.94
2018-11-21T02:51:55.908Z,3.96
2018-11-21T02:52:22.039Z,3.98
2018-11-21T02:52:48.171Z,3.94
2018-11-21T02:53:14.302Z,3.96
2018-11-21T02:53:40.458Z,3.94
2018-11-21T02:54:06.642Z,3.98
2018-11-21T02:54:32.807Z,3.96
2018-11-21T02:54:58.961Z,3.92
2018-11-21T02:55:25.194Z,3.96
2018-11-21T02:55:51.358Z,3.92
2018-11-21T02:56:17.482Z,3.99
2018-11-21T02:56:43.668Z,4.05
2018-11-21T02:57:09.814Z,4.1
2018-11-21T02:57:35.988Z,4.12
2018-11-21T02:58:02.144Z,4.14
2018-11-21T02:58:28.280Z,4.14
2018-11-21T02:58:54.408Z,4.12
2018-11-21T02:59:20.591Z,4.19
2018-11-21T02:59:46.740Z,4.22
2018-11-21T03:00:12.920Z,4.12
2018-11-21T03:00:39.068Z,4.19
2018-11-21T03:01:05.266Z,4.19
2018-11-21T03:01:31.448Z,4.16
2018-11-21T03:01:57.612Z,4.22
2018-11-21T03:02:23.782Z,4.17
2018-11-21T03:02:49.901Z,4.2
2018-11-21T03:03:16.033Z,4.2
2018-11-21T03:03:42.161Z,4.2
2018-11-21T03:04:08.294Z,4.22
2018-11-21T03:04:34.426Z,4.22
2018-11-21T03:05:00.573Z,4.17
2018-11-21T03:05:26.725Z,4.2
2018-11-21T03:05:52.886Z,4.23
2018-11-21T03:06:19.067Z,4.13
2018-11-21T03:06:45.235Z,4.2
2018-11-21T03:07:11.374Z,4.23
2018-11-21T03:07:37.500Z,4.17
2018-11-21T03:08:03.634Z,4.28
2018-11-21T03:08:29.765Z,4.19
2018-11-21T03:08:55.919Z,4.2
2018-11-21T03:09:22.076Z,4.17
2018-11-21T03:09:48.223Z,4.14
2018-11-21T03:10:14.376Z,4.2
2018-11-21T03:10:40.513Z,4.2
2018-11-21T03:11:06.704Z,4.14
2018-11-21T03:11:32.874Z,4.16
2018-11-21T03:11:59.012Z,4.14
2018-11-21T03:12:25.175Z,4.12
2018-11-21T03:12:51.314Z,4.16
2018-11-21T03:13:17.472Z,4.19
2018-11-21T03:13:43.623Z,4.1
2018-11-21T03:14:09.748Z,4.14
2018-11-21T03:14:35.878Z,4.16
2018-11-21T03:15:02.029Z,4.16
2018-11-21T03:15:28.201Z,4.16
2018-11-21T03:15:54.332Z,4.19
2018-11-21T03:16:20.487Z,4.19
2018-11-21T03:16:46.622Z,4.17
2018-11-21T03:17:12.784Z,4.14
2018-11-21T03:17:38.909Z,4.19
2018-11-21T03:18:05.068Z,4.17
2018-11-21T03:18:31.196Z,4.16
2018-11-21T03:18:57.343Z,4.16
2018-11-21T03:19:23.479Z,4.13
2018-11-21T03:19:49.621Z,4.14
2018-11-21T03:20:15.749Z,4.1
2018-11-21T03:20:41.926Z,4.13
2018-11-21T03:21:08.060Z,4.06
2018-11-21T03:21:34.186Z,4.06
2018-11-21T03:22:00.316Z,4.1
2018-11-21T03:22:26.448Z,4.14
2018-11-21T03:22:52.601Z,4.08
2018-11-21T03:23:18.753Z,4.13
2018-11-21T03:23:44.928Z,4.06
2018-11-21T03:24:11.098Z,4.08
2018-11-21T03:24:37.273Z,4.05
2018-11-21T03:25:03.455Z,4.14
2018-11-21T03:25:29.662Z,4.1
2018-11-21T03:25:55.793Z,4.1
2018-11-21T03:26:21.954Z,4.05
2018-11-21T03:26:48.085Z,4.06
2018-11-21T03:27:14.246Z,4.1
2018-11-21T03:27:40.380Z,4.14
2018-11-21T03:28:06.538Z,4.14
2018-11-21T03:28:32.645Z,4.22
2018-11-21T03:28:58.795Z,4.17
2018-11-21T03:29:24.950Z,4.16
2018-11-21T03:29:51.105Z,4.14
2018-11-21T03:30:17.311Z,4.17
2018-11-21T03:30:43.513Z,4.17
2018-11-21T03:31:09.666Z,4.22
2018-11-21T03:31:35.882Z,4.16
2018-11-21T03:32:02.092Z,4.22
2018-11-21T03:32:28.322Z,4.16
2018-11-21T03:32:54.489Z,4.13
2018-11-21T03:33:20.630Z,4.19
2018-11-21T03:33:46.789Z,4.2
2018-11-21T03:34:12.924Z,4.17
2018-11-21T03:34:39.056Z,4.19
2018-11-21T03:35:05.204Z,4.22
2018-11-21T03:35:31.360Z,4.31
2018-11-21T03:35:57.578Z,4.17
2018-11-21T03:36:23.709Z,4.26
2018-11-21T03:36:49.862Z,4.26
2018-11-21T03:37:15.992Z,4.26
2018-11-21T03:37:42.120Z,4.22
2018-11-21T03:38:08.299Z,4.13
2018-11-21T03:38:34.469Z,4.24
2018-11-21T03:39:00.618Z,4.19
2018-11-21T03:39:26.775Z,4.22
2018-11-21T03:39:52.933Z,4.19
2018-11-21T03:40:19.090Z,4.2
2018-11-21T03:40:45.216Z,4.31
2018-11-21T03:41:11.401Z,4.24
2018-11-21T03:41:37.563Z,4.2
2018-11-21T03:42:03.731Z,4.19
2018-11-21T03:42:29.909Z,4.17
2018-11-21T03:42:56.083Z,4.22
2018-11-21T03:43:22.238Z,4.22
2018-11-21T03:43:48.368Z,4.19
2018-11-21T03:44:14.529Z,4.19
2018-11-21T03:44:40.677Z,4.16
2018-11-21T03:45:06.812Z,4.1
2018-11-21T03:45:32.973Z,4.12
2018-11-21T03:45:59.127Z,4.05
2018-11-21T03:46:25.305Z,4.08
2018-11-21T03:46:51.439Z,4.06
2018-11-21T03:47:17.590Z,4.05
2018-11-21T03:47:43.730Z,4.08
2018-11-21T03:48:09.889Z,4.04
2018-11-21T03:48:36.083Z,4.04
2018-11-21T03:49:02.215Z,4.01
2018-11-21T03:49:28.346Z,4.05
2018-11-21T03:49:54.496Z,4.05
2018-11-21T03:50:20.652Z,4.06
2018-11-21T03:50:46.807Z,3.99
2018-11-21T03:51:12.967Z,4.04
2018-11-21T03:51:39.094Z,4.08
2018-11-21T03:52:05.228Z,4.04
2018-11-21T03:52:31.378Z,3.95
2018-11-21T03:52:57.510Z,3.95
2018-11-21T03:53:23.667Z,3.98
2018-11-21T03:53:49.794Z,4.01
2018-11-21T03:54:15.951Z,3.95
2018-11-21T03:54:42.130Z,3.98
2018-11-21T03:55:08.287Z,3.94
2018-11-21T03:55:34.469Z,4.01
2018-11-21T03:56:00.648Z,4.04
2018-11-21T03:56:26.803Z,4.08
2018-11-21T03:56:52.979Z,4.05
2018-11-21T03:57:19.112Z,4.08
2018-11-21T03:57:45.312Z,4.1
2018-11-21T03:58:11.449Z,4.1
2018-11-21T03:58:37.585Z,4.1
2018-11-21T03:59:03.768Z,4.08
2018-11-21T03:59:29.923Z,4.17
2018-11-21T03:59:56.073Z,4.12
2018-11-21T04:00:22.228Z,4.08
2018-11-21T04:00:48.374Z,4.1
2018-11-21T04:01:14.511Z,4.08
2018-11-21T04:01:40.687Z,4.08
2018-11-21T04:02:06.866Z,4.12
2018-11-21T04:02:33.002Z,4.14
2018-11-21T04:02:59.152Z,4.12
2018-11-21T04:03:25.283Z,4.13
2018-11-21T04:03:51.439Z,4.13
2018-11-21T04:04:17.618Z,4.01
2018-11-21T04:04:43.771Z,4.05
2018-11-21T04:05:09.930Z,4.08
2018-11-21T04:05:36.102Z,4.02
2018-11-21T04:06:02.240Z,4.05
2018-11-21T04:06:28.386Z,4.1
2018-11-21T04:06:54.515Z,4.06
2018-11-21T04:07:20.642Z,4.08
2018-11-21T04:07:46.775Z,4.1
2018-11-21T04:08:12.914Z,4.14
2018-11-21T04:08:42.562Z,4.08
2018-11-21T04:09:05.233Z,4.1
2018-11-21T04:09:31.414Z,4.1
2018-11-21T04:09:57.539Z,4.06
2018-11-21T04:10:23.669Z,4.06
2018-11-21T04:10:49.808Z,4.12
2018-11-21T04:11:15.962Z,4.06
2018-11-21T04:11:42.141Z,4.1
2018-11-21T04:12:08.321Z,4.06
2018-11-21T04:12:34.461Z,4.05
2018-11-21T04:13:00.584Z,3.98
2018-11-21T04:13:26.740Z,3.99
2018-11-21T04:13:52.876Z,3.96
2018-11-21T04:14:18.999Z,3.99
2018-11-21T04:14:45.128Z,3.99
2018-11-21T04:15:11.313Z,4.01
2018-11-21T04:15:37.438Z,3.98
2018-11-21T04:16:03.618Z,4.08
2018-11-21T04:16:29.777Z,4.06
2018-11-21T04:16:55.936Z,4.05
2018-11-21T04:17:22.096Z,4.08
2018-11-21T04:17:48.249Z,4.01
2018-11-21T04:18:14.407Z,4.08
2018-11-21T04:18:40.564Z,4.05
2018-11-21T04:19:06.700Z,4.16
2018-11-21T04:19:32.865Z,4.14
2018-11-21T04:19:59.014Z,4.13
2018-11-21T04:20:25.168Z,4.13
2018-11-21T04:20:51.321Z,4.19
2018-11-21T04:21:17.484Z,4.16
2018-11-21T04:21:43.670Z,4.16
2018-11-21T04:22:09.808Z,4.16
2018-11-21T04:22:35.955Z,4.1
2018-11-21T04:23:02.107Z,4.13
2018-11-21T04:23:28.237Z,4.08
2018-11-21T04:23:54.367Z,4.05
2018-11-21T04:24:20.503Z,4.06
2018-11-21T04:24:46.682Z,4.12
2018-11-21T04:25:12.812Z,4.06
2018-11-21T04:25:38.961Z,4.02
2018-11-21T04:26:05.094Z,4.04
2018-11-21T04:26:31.227Z,4.01
2018-11-21T04:26:57.383Z,3.96
2018-11-21T04:27:23.513Z,3.95
2018-11-21T04:27:49.641Z,3.95
2018-11-21T04:28:15.775Z,3.92
2018-11-21T04:28:41.905Z,4.01
2018-11-21T04:29:08.030Z,4.02
2018-11-21T04:29:34.197Z,4.08
2018-11-21T04:30:00.408Z,4.08
2018-11-21T04:30:26.583Z,4.05
2018-11-21T04:30:52.800Z,4.12
2018-11-21T04:31:18.941Z,4.13
2018-11-21T04:31:45.096Z,4.06
2018-11-21T04:32:11.222Z,4.14
2018-11-21T04:32:37.428Z,4.08
2018-11-21T04:33:03.603Z,4.13
2018-11-21T04:33:29.754Z,4.06
2018-11-21T04:33:55.923Z,4.08
2018-11-21T04:34:22.078Z,4.1
2018-11-21T04:34:48.205Z,4.12
2018-11-21T04:35:14.357Z,4.06
2018-11-21T04:35:40.506Z,4.06
2018-11-21T04:36:06.666Z,4.08
2018-11-21T04:36:32.813Z,4.06
2018-11-21T04:36:58.971Z,4.1
2018-11-21T04:37:25.101Z,4.06
2018-11-21T04:37:51.232Z,4.16
2018-11-21T04:38:17.366Z,4.13
2018-11-21T04:38:43.496Z,4.13
2018-11-21T04:39:09.685Z,4.22
2018-11-21T04:39:35.820Z,4.16
2018-11-21T04:40:01.959Z,4.17
2018-11-21T04:40:28.104Z,4.23
2018-11-21T04:40:54.304Z,4.16
2018-11-21T04:41:20.433Z,4.14
2018-11-21T04:41:46.613Z,4.16
2018-11-21T04:42:12.763Z,4.14
2018-11-21T04:42:38.948Z,4.17
2018-11-21T04:43:05.071Z,4.16
2018-11-21T04:43:31.234Z,4.2
2018-11-21T04:43:57.406Z,4.23
2018-11-21T04:44:23.559Z,4.23
2018-11-21T04:44:49.727Z,4.28
2018-11-21T04:45:15.860Z,4.31
2018-11-21T04:45:42.034Z,4.28
2018-11-21T04:46:08.269Z,4.16
2018-11-21T04:46:34.424Z,4.19
2018-11-21T04:47:00.550Z,4.24
2018-11-21T04:47:26.696Z,4.24
2018-11-21T04:47:52.822Z,4.17
2018-11-21T04:48:18.958Z,4.14
2018-11-21T04:48:45.085Z,4.22
2018-11-21T04:49:11.233Z,4.19
2018-11-21T04:49:37.367Z,4.17
2018-11-21T04:50:03.524Z,4.17
2018-11-21T04:50:29.705Z,4.2
2018-11-21T04:50:55.842Z,4.23
2018-11-21T04:51:21.967Z,4.19
2018-11-21T04:51:48.098Z,4.24
2018-11-21T04:52:14.232Z,4.19
2018-11-21T04:52:40.386Z,4.17
2018-11-21T04:53:06.516Z,4.14
2018-11-21T04:53:32.674Z,4.19
2018-11-21T04:53:58.809Z,4.19
2018-11-21T04:54:24.992Z,4.19
2018-11-21T04:54:51.197Z,4.2
2018-11-21T04:55:17.356Z,4.2
2018-11-21T04:55:43.499Z,4.17
2018-11-21T04:56:09.646Z,4.19
2018-11-21T04:56:35.808Z,4.16
2018-11-21T04:57:01.962Z,4.1
2018-11-21T04:57:28.100Z,4.12
2018-11-21T04:57:54.228Z,4.08
2018-11-21T04:58:20.386Z,4.06
2018-11-21T04:58:46.516Z,4.06
2018-11-21T04:59:12.683Z,4.12
2018-11-21T04:59:38.775Z,4.08
2018-11-21T05:00:04.929Z,4.13
2018-11-21T05:00:31.057Z,4.16
2018-11-21T05:00:57.214Z,4.13
2018-11-21T05:01:23.338Z,4.12
2018-11-21T05:01:49.500Z,4.05
2018-11-21T05:02:15.646Z,4.06
2018-11-21T05:02:41.780Z,4.04
2018-11-21T05:03:07.909Z,4.02
2018-11-21T05:03:34.059Z,4.08
2018-11-21T05:04:00.194Z,4.06
2018-11-21T05:04:26.349Z,4.06
2018-11-21T05:04:52.504Z,4.02
2018-11-21T05:05:18.637Z,4.06
2018-11-21T05:05:44.768Z,4.05
2018-11-21T05:06:10.900Z,4.02
2018-11-21T05:06:37.034Z,4.05
2018-11-21T05:07:03.185Z,4.05
2018-11-21T05:07:29.312Z,4.05
2018-11-21T05:07:55.450Z,4.1
2018-11-21T05:08:21.583Z,4.04
2018-11-21T05:08:47.709Z,4.04
2018-11-21T05:09:13.870Z,4.01
2018-11-21T05:09:39.989Z,4.04
2018-11-21T05:10:06.148Z,4.08
2018-11-21T05:10:32.301Z,4.02
2018-11-21T05:10:58.459Z,4.06
2018-11-21T05:11:24.606Z,4.02
2018-11-21T05:11:50.757Z,4.1
2018-11-21T05:12:16.905Z,4.12
2018-11-21T05:12:43.042Z,4.08
2018-11-21T05:13:09.170Z,4.13
2018-11-21T05:13:35.309Z,4.08
2018-11-21T05:14:01.425Z,4.08
2018-11-21T05:14:27.557Z,4.05
2018-11-21T05:14:53.738Z,4.08
2018-11-21T05:15:19.889Z,4.05
2018-11-21T05:15:46.075Z,4.1
2018-11-21T05:16:12.211Z,3.99
2018-11-21T05:16:38.388Z,4.02
2018-11-21T05:17:04.587Z,4.01
2018-11-21T05:17:30.747Z,3.96
2018-11-21T05:17:56.881Z,3.96
2018-11-21T05:18:23.031Z,3.99
2018-11-21T05:18:49.159Z,3.94
2018-11-21T05:19:15.294Z,3.92
2018-11-21T05:19:41.480Z,3.95
2018-11-21T05:20:07.638Z,3.94
2018-11-21T05:20:33.773Z,3.88
2018-11-21T05:20:59.903Z,3.94
2018-11-21T05:21:26.039Z,3.92
2018-11-21T05:21:52.189Z,3.84
2018-11-21T05:22:18.316Z,3.88
2018-11-21T05:22:44.451Z,3.92
2018-11-21T05:23:10.576Z,3.98
2018-11-21T05:23:36.709Z,3.95
2018-11-21T05:24:02.870Z,3.94
2018-11-21T05:24:28.999Z,3.96
2018-11-21T05:24:55.129Z,3.94
2018-11-21T05:25:21.282Z,4.02
2018-11-21T05:25:47.410Z,3.99
2018-11-21T05:26:13.548Z,3.88
2018-11-21T05:26:39.682Z,3.95
2018-11-21T05:27:05.836Z,4.01
2018-11-21T05:27:31.970Z,3.99
2018-11-21T05:27:58.097Z,4.01
2018-11-21T05:28:24.227Z,3.99
2018-11-21T05:28:50.356Z,3.98
2018-11-21T05:29:16.486Z,3.98
2018-11-21T05:29:42.638Z,3.95
2018-11-21T05:30:08.769Z,3.94
2018-11-21T05:30:34.901Z,3.95
2018-11-21T05:31:01.036Z,3.95
2018-11-21T05:31:27.219Z,3.94
2018-11-21T05:31:53.352Z,4.06
2018-11-21T05:32:19.471Z,4.06
2018-11-21T05:32:45.608Z,3.98
2018-11-21T05:33:11.759Z,3.94
2018-11-21T05:33:37.890Z,4.04
2018-11-21T05:34:04.019Z,3.98
2018-11-21T05:34:30.151Z,3.94
2018-11-21T05:34:56.355Z,3.94
2018-11-21T05:35:22.527Z,4.1
2018-11-21T05:35:48.647Z,4.08
2018-11-21T05:36:14.782Z,4.05
2018-11-21T05:36:40.900Z,4.02
2018-11-21T05:37:07.036Z,4.04
2018-11-21T05:37:33.163Z,4.02
2018-11-21T05:37:59.298Z,3.96
2018-11-21T05:38:25.427Z,3.96
2018-11-21T05:38:51.554Z,3.94
2018-11-21T05:39:17.694Z,4.01
2018-11-21T05:39:43.826Z,3.91
2018-11-21T05:40:09.962Z,4.04
2018-11-21T05:40:36.087Z,3.96
2018-11-21T05:41:02.226Z,3.95
2018-11-21T05:41:28.375Z,3.95
2018-11-21T05:41:54.509Z,3.99
2018-11-21T05:42:20.650Z,3.98
2018-11-21T05:42:46.783Z,3.98
2018-11-21T05:43:12.907Z,3.99
2018-11-21T05:43:39.036Z,3.96
2018-11-21T05:44:05.211Z,3.98
2018-11-21T05:44:31.691Z,3.98
2018-11-21T05:44:57.526Z,4.06
2018-11-21T05:45:23.727Z,4.04
2018-11-21T05:45:49.850Z,3.99
2018-11-21T05:46:15.987Z,4.02
2018-11-21T05:46:42.119Z,4.06
2018-11-21T05:47:08.251Z,3.96
2018-11-21T05:47:34.379Z,3.99
2018-11-21T05:48:00.509Z,3.98
2018-11-21T05:48:26.642Z,4.04
2018-11-21T05:48:52.791Z,3.96
2018-11-21T05:49:18.948Z,4.06